Terminal Aerodrome Forecast
Issued by NWS

Home | Current Version | Previous Version | Graphics & Text | Print | Product List | Glossary On
Versions: 1 2 3 4 5 6 7 8 9 10 11 12 13 14 15 16 17 18 19 20 21
000
FTUS42 KMHX 230129 AAA
TAFPGV
TAF AMD
KPGV 230129Z 2301/2324 06004KT 4SM BR OVC002
     FM230300 09010KT 4SM SHRA VCTS OVC007CB
     FM230700 09009KT P6SM OVC007
     FM231200 22007KT P6SM SCT015 BKN080
     FM231800 24007KT P6SM VCSH BKN035
      AMD LTD TO CLD VIS AND WIND=

USA.gov is the U.S. government's official web portal to all federal, state and local government web resources and services.